WMP weather

Mampikony Airport
Mampikony, Mahajanga, Madagascar

Public forecast

Using degrees Celsius for public forecast. Weather courtesy of forecast.io.

Closest aviation weather report (METAR) to Mampikony Airport

Report is more than 6 hours old.

Closest report is Tsaratanana Airport, 40.8 nm (75.5 km) S. Retrieved 2012/12/09 01:00 UTC (7 years ago):

FMNT 090100Z 00000KT 9999 FEW017 SCT033 22/22 Q1011

Closest aviation forecast (TAF) to Mampikony Airport

Closest forecast is Amborovy Airport, 78.5 nm (145.5 km) WNW. Retrieved 2019/10/18 12:00 UTC (3 hours ago):

TAF FMNM 181100Z 1812/1912 32010KT 9999 FEW023 BECMG 1818/1821 06006KT BECMG 1900/1903 12010KT